Burdaard, Netherlands
Current Conditions -  °F | °C
As of 5:25 AM on Wednesday 22 Oct 2014 (Local Time) from EHLW Reporting Station
Broken Clouds Broken Clouds  
Wind Chill: 40°   Ceiling: 5300
Heat Index: 48°   Visibility: 6mi
Dew Point: 41°   Wind: 28mph
Humidity: 76%   Direction: 320°NW
Pressure: 29.77"   Gusts: 40mph
Location:  53.29°N, 5.88°E
Report Text: EHLW 220325Z AUTO 32024G35KT 9999 FEW015TCU SCT031 BKN053 09/05 Q1008 BLU
Loading
Personal Weather Stations






























Interactive Weather Map
Tropical Storm Tracking
New forecast layout! Learn more

10-Day Weather Forecast

Advertisements
Track Severe Weather on mobile